createdAt,value
2022-09-17T00:00:45.321Z,63.31
2022-09-17T00:01:45.651Z,63.40
2022-09-17T00:02:45.953Z,63.31
2022-09-17T00:03:46.189Z,63.40
2022-09-17T00:04:46.513Z,63.42
2022-09-17T00:05:46.770Z,63.29
2022-09-17T00:06:47.103Z,64.06
2022-09-17T00:07:47.365Z,64.06
2022-09-17T00:08:47.652Z,63.48
2022-09-17T00:09:47.952Z,63.29
2022-09-17T00:10:48.240Z,63.58
2022-09-17T00:11:48.565Z,62.81
2022-09-17T00:12:48.820Z,63.30
2022-09-17T00:13:49.119Z,62.71
2022-09-17T00:14:49.439Z,62.70
2022-09-17T00:15:49.788Z,63.29
2022-09-17T00:16:49.958Z,63.29
2022-09-17T00:17:50.220Z,63.29
2022-09-17T00:18:50.514Z,62.50
2022-09-17T00:19:50.816Z,62.70
2022-09-17T00:20:51.138Z,62.65
2022-09-17T00:21:51.443Z,62.55
2022-09-17T00:22:51.702Z,63.29
2022-09-17T00:23:52.000Z,63.29
2022-09-17T00:24:52.280Z,63.28
2022-09-17T00:25:52.584Z,63.29
2022-09-17T00:26:52.900Z,62.50
2022-09-17T00:27:53.162Z,62.50
2022-09-17T00:28:53.459Z,62.50
2022-09-17T00:29:53.722Z,62.50
2022-09-17T00:30:54.086Z,62.50
2022-09-17T00:31:54.283Z,62.50
2022-09-17T00:32:54.545Z,62.50
2022-09-17T00:33:54.856Z,62.50
2022-09-17T00:34:55.115Z,62.50
2022-09-17T00:35:55.431Z,62.50
2022-09-17T00:36:55.709Z,62.50
2022-09-17T00:37:55.993Z,62.50
2022-09-17T00:38:56.266Z,63.10
2022-09-17T00:39:56.562Z,62.70
2022-09-17T00:40:56.814Z,62.73
2022-09-17T00:41:57.130Z,62.73
2022-09-17T00:42:57.385Z,63.09
2022-09-17T00:43:57.724Z,63.03
2022-09-17T00:44:58.016Z,63.32
2022-09-17T00:45:58.277Z,62.62
2022-09-17T00:46:58.610Z,62.52
2022-09-17T00:47:58.870Z,62.52
2022-09-17T00:48:59.161Z,63.20
2022-09-17T00:49:59.452Z,62.62
2022-09-17T00:50:59.774Z,62.62
2022-09-17T00:52:00.770Z,63.03
2022-09-17T00:53:00.295Z,64.07
2022-09-17T00:54:00.581Z,62.82
2022-09-17T00:55:00.885Z,62.73
2022-09-17T00:56:01.186Z,63.21
2022-09-17T00:57:01.460Z,62.63
2022-09-17T00:58:01.740Z,62.53
2022-09-17T00:59:03.163Z,62.63
2022-09-17T01:00:02.273Z,63.10
2022-09-17T01:01:02.640Z,63.31
2022-09-17T01:02:08.250Z,63.31
2022-09-17T01:03:05.275Z,63.31
2022-09-17T01:04:03.363Z,63.32
2022-09-17T01:05:03.622Z,62.55
2022-09-17T01:06:06.386Z,62.55
2022-09-17T01:07:08.362Z,62.55
2022-09-17T01:08:04.518Z,62.74
2022-09-17T01:09:04.785Z,63.34
2022-09-17T01:10:06.406Z,62.55
2022-09-17T01:11:09.228Z,62.74
2022-09-17T01:12:05.969Z,62.84
2022-09-17T01:13:05.892Z,62.65
2022-09-17T01:14:06.565Z,62.75
2022-09-17T01:15:07.519Z,62.75
2022-09-17T01:16:06.771Z,62.95
2022-09-17T01:17:06.965Z,62.55
2022-09-17T01:18:07.237Z,62.85
2022-09-17T01:19:07.554Z,62.75
2022-09-17T01:20:07.794Z,63.34
2022-09-17T01:21:08.120Z,62.75
2022-09-17T01:22:08.398Z,63.34
2022-09-17T01:23:08.686Z,63.34
2022-09-17T01:24:08.965Z,62.94
2022-09-17T01:25:09.273Z,63.04
2022-09-17T01:26:09.596Z,63.04
2022-09-17T01:27:09.878Z,63.33
2022-09-17T01:28:10.161Z,63.33
2022-09-17T01:29:10.441Z,63.44
2022-09-17T01:30:10.721Z,63.77
2022-09-17T01:31:11.037Z,63.54
2022-09-17T01:32:11.307Z,63.34
2022-09-17T01:33:11.594Z,63.34
2022-09-17T01:34:11.865Z,63.34
2022-09-17T01:35:12.140Z,63.13
2022-09-17T01:36:12.424Z,63.13
2022-09-17T01:37:12.776Z,63.13
2022-09-17T01:38:13.037Z,63.26
2022-09-17T01:39:13.363Z,65.67
2022-09-17T01:40:13.703Z,65.67
2022-09-17T01:41:13.884Z,65.67
2022-09-17T01:42:14.167Z,65.67
2022-09-17T01:43:14.416Z,65.67
2022-09-17T01:44:14.728Z,65.67
2022-09-17T01:45:15.024Z,65.67
2022-09-17T01:46:15.372Z,65.67
2022-09-17T01:47:20.191Z,65.67
2022-09-17T01:48:16.905Z,65.68
2022-09-17T01:49:16.218Z,65.78
2022-09-17T01:50:16.527Z,65.67
2022-09-17T01:51:16.833Z,65.67
2022-09-17T01:52:17.148Z,65.67
2022-09-17T01:53:17.430Z,65.67
2022-09-17T01:54:17.752Z,65.77
2022-09-17T01:55:18.014Z,65.67
2022-09-17T01:56:18.303Z,65.77
2022-09-17T01:57:18.633Z,65.77
2022-09-17T01:58:18.921Z,65.67
2022-09-17T01:59:19.203Z,65.77
2022-09-17T02:00:19.478Z,65.70
2022-09-17T02:01:19.782Z,65.80
2022-09-17T02:02:20.096Z,65.69
2022-09-17T02:03:20.360Z,65.69
2022-09-17T02:04:20.678Z,65.70
2022-09-17T02:05:20.975Z,65.88
2022-09-17T02:06:21.325Z,65.88
2022-09-17T02:07:21.627Z,65.70
2022-09-17T02:08:21.909Z,65.70
2022-09-17T02:09:22.224Z,65.70
2022-09-17T02:10:22.499Z,65.91
2022-09-17T02:11:22.804Z,65.70
2022-09-17T02:12:23.148Z,65.89
2022-09-17T02:13:23.416Z,65.70
2022-09-17T02:14:23.741Z,65.91
2022-09-17T02:15:24.003Z,65.70
2022-09-17T02:16:24.429Z,65.70
2022-09-17T02:17:24.693Z,65.70
2022-09-17T02:18:24.806Z,65.70
2022-09-17T02:19:25.088Z,65.70
2022-09-17T02:20:25.409Z,65.75
2022-09-17T02:21:25.688Z,65.78
2022-09-17T02:22:25.976Z,65.78
2022-09-17T02:23:26.259Z,65.78
2022-09-17T02:24:26.580Z,65.67
2022-09-17T02:25:26.870Z,65.88
2022-09-17T02:26:27.149Z,65.73
2022-09-17T02:27:27.449Z,65.94
2022-09-17T02:28:27.739Z,65.83
2022-09-17T02:29:28.018Z,65.83
2022-09-17T02:30:28.318Z,65.94
2022-09-17T02:31:28.659Z,65.64
2022-09-17T02:32:28.958Z,65.94
2022-09-17T02:33:29.269Z,65.82
2022-09-17T02:34:29.518Z,65.64
2022-09-17T02:35:29.869Z,65.82
2022-09-17T02:36:30.155Z,65.92
2022-09-17T02:37:30.427Z,65.62
2022-09-17T02:38:30.693Z,65.65
2022-09-17T02:39:31.005Z,65.94
2022-09-17T02:40:31.397Z,66.02
2022-09-17T02:41:31.670Z,65.62
2022-09-17T02:42:31.987Z,66.14
2022-09-17T02:43:32.257Z,66.04
2022-09-17T02:44:32.565Z,66.04
2022-09-17T02:45:32.890Z,66.04
2022-09-17T02:46:33.231Z,66.04
2022-09-17T02:47:33.527Z,65.65
2022-09-17T02:48:33.799Z,65.64
2022-09-17T02:49:34.105Z,65.62
2022-09-17T02:50:34.433Z,65.74
2022-09-17T02:51:34.706Z,65.62
2022-09-17T02:52:35.049Z,65.62
2022-09-17T02:53:35.316Z,65.92
2022-09-17T02:54:35.597Z,66.06
2022-09-17T02:55:35.857Z,65.67
2022-09-17T02:56:36.201Z,66.06
2022-09-17T02:57:36.499Z,66.07
2022-09-17T02:58:36.756Z,66.07
2022-09-17T02:59:37.119Z,66.07
2022-09-17T03:00:37.483Z,66.17
2022-09-17T03:01:37.680Z,66.17
2022-09-17T03:02:37.956Z,66.17
2022-09-17T03:03:38.239Z,66.17
2022-09-17T03:04:38.517Z,66.07
2022-09-17T03:05:38.842Z,66.07
2022-09-17T03:06:39.122Z,66.04
2022-09-17T03:07:39.429Z,66.04
2022-09-17T03:08:39.710Z,66.04
2022-09-17T03:09:40.018Z,66.04
2022-09-17T03:10:40.328Z,66.04
2022-09-17T03:11:40.670Z,66.04
2022-09-17T03:12:40.961Z,66.02
2022-09-17T03:13:41.234Z,66.02
2022-09-17T03:14:41.578Z,66.02
2022-09-17T03:15:41.958Z,65.62
2022-09-17T03:16:42.164Z,66.02
2022-09-17T03:17:42.469Z,66.02
2022-09-17T03:18:42.742Z,65.84
2022-09-17T03:19:43.069Z,65.84
2022-09-17T03:20:43.376Z,66.04
2022-09-17T03:21:43.675Z,65.94
2022-09-17T03:22:43.981Z,65.94
2022-09-17T03:23:44.283Z,65.94
2022-09-17T03:24:44.564Z,66.02
2022-09-17T03:25:44.835Z,66.24
2022-09-17T03:26:45.117Z,66.24
2022-09-17T03:27:45.448Z,66.35
2022-09-17T03:28:45.741Z,66.35
2022-09-17T03:29:46.034Z,66.24
2022-09-17T03:30:46.312Z,66.35
2022-09-17T03:31:46.705Z,66.24
2022-09-17T03:32:46.902Z,66.24
2022-09-17T03:33:47.178Z,66.21
2022-09-17T03:34:47.485Z,66.21
2022-09-17T03:35:47.805Z,66.21
2022-09-17T03:36:48.088Z,66.21
2022-09-17T03:37:48.397Z,66.21
2022-09-17T03:38:48.718Z,66.21
2022-09-17T03:39:49.115Z,66.21
2022-09-17T03:40:49.287Z,66.11
2022-09-17T03:41:49.568Z,66.09
2022-09-17T03:42:49.852Z,66.08
2022-09-17T03:43:50.134Z,66.09
2022-09-17T03:44:50.440Z,66.11
2022-09-17T03:45:50.803Z,66.00
2022-09-17T03:46:51.182Z,65.89
2022-09-17T03:47:51.381Z,65.80
2022-09-17T03:48:51.660Z,65.89
2022-09-17T03:49:51.945Z,65.89
2022-09-17T03:50:52.240Z,65.69
2022-09-17T03:51:52.531Z,65.87
2022-09-17T03:52:52.798Z,65.67
2022-09-17T03:53:53.108Z,65.67
2022-09-17T03:54:53.421Z,65.68
2022-09-17T03:55:53.740Z,66.06
2022-09-17T03:56:54.028Z,66.05
2022-09-17T03:57:54.340Z,66.06
2022-09-17T03:58:54.684Z,66.03
2022-09-17T03:59:54.986Z,65.65
2022-09-17T04:00:55.309Z,65.64
2022-09-17T04:01:55.668Z,66.05
2022-09-17T04:02:55.979Z,65.67
2022-09-17T04:03:56.346Z,65.62
2022-09-17T04:04:56.483Z,65.62
2022-09-17T04:05:56.804Z,66.21
2022-09-17T04:06:57.151Z,65.62
2022-09-17T04:07:57.332Z,65.62
2022-09-17T04:08:57.627Z,66.11
2022-09-17T04:09:57.954Z,66.21
2022-09-17T04:10:58.275Z,66.11
2022-09-17T04:11:58.549Z,66.31
2022-09-17T04:12:58.859Z,66.21
2022-09-17T04:13:59.193Z,66.23
2022-09-17T04:14:59.545Z,65.62
2022-09-17T04:15:59.884Z,66.21
2022-09-17T04:17:00.166Z,66.03
2022-09-17T04:18:00.487Z,65.82
2022-09-17T04:19:00.983Z,65.84
2022-09-17T04:20:01.160Z,65.64
2022-09-17T04:21:01.539Z,65.82
2022-09-17T04:22:01.816Z,66.23
2022-09-17T04:23:02.139Z,66.23
2022-09-17T04:24:02.472Z,66.22
2022-09-17T04:25:02.811Z,66.03
2022-09-17T04:26:03.133Z,66.22
2022-09-17T04:27:03.423Z,66.22
2022-09-17T04:28:03.764Z,65.67
2022-09-17T04:29:04.058Z,66.08
2022-09-17T04:30:04.346Z,66.02
2022-09-17T04:31:04.755Z,65.64
2022-09-17T04:32:04.904Z,66.27
2022-09-17T04:33:05.253Z,65.64
2022-09-17T04:34:05.531Z,66.02
2022-09-17T04:35:05.870Z,66.02
2022-09-17T04:36:06.195Z,66.17
2022-09-17T04:37:06.481Z,66.02
2022-09-17T04:38:06.824Z,66.02
2022-09-17T04:39:07.134Z,65.64
2022-09-17T04:40:08.209Z,66.02
2022-09-17T04:41:07.715Z,66.11
2022-09-17T04:42:07.992Z,66.11
2022-09-17T04:43:08.323Z,66.02
2022-09-17T04:44:08.619Z,65.72
2022-09-17T04:45:08.916Z,65.72
2022-09-17T04:46:09.255Z,65.64
2022-09-17T04:47:09.531Z,65.74
2022-09-17T04:48:09.854Z,65.64
2022-09-17T04:49:10.178Z,66.02
2022-09-17T04:50:10.526Z,66.13
2022-09-17T04:51:10.851Z,66.02
2022-09-17T04:52:11.131Z,65.72
2022-09-17T04:53:11.487Z,65.74
2022-09-17T04:54:11.772Z,65.74
2022-09-17T04:55:12.111Z,65.62
2022-09-17T04:56:12.497Z,65.62
2022-09-17T04:57:12.670Z,65.82
2022-09-17T04:58:13.017Z,66.02
2022-09-17T04:59:13.307Z,66.31
2022-09-17T05:00:13.639Z,65.62
2022-09-17T05:01:14.119Z,66.41
2022-09-17T05:02:14.447Z,66.42
2022-09-17T05:03:14.644Z,66.41
2022-09-17T05:04:14.937Z,66.52
2022-09-17T05:05:15.244Z,66.42
2022-09-17T05:06:15.561Z,66.50
2022-09-17T05:07:15.855Z,66.52
2022-09-17T05:08:16.195Z,66.41
2022-09-17T05:09:16.502Z,65.73
2022-09-17T05:10:16.815Z,65.83
2022-09-17T05:11:17.145Z,65.83
2022-09-17T05:12:17.434Z,66.50
2022-09-17T05:13:17.744Z,66.50
2022-09-17T05:14:18.095Z,66.50
2022-09-17T05:15:18.399Z,66.41
2022-09-17T05:16:18.813Z,65.73
2022-09-17T05:17:19.013Z,65.64
2022-09-17T05:18:19.325Z,65.73
2022-09-17T05:19:19.550Z,66.41
2022-09-17T05:20:19.893Z,66.41
2022-09-17T05:21:20.412Z,65.73
2022-09-17T05:22:21.544Z,65.63
2022-09-17T05:23:20.812Z,65.64
2022-09-17T05:24:21.189Z,65.62
2022-09-17T05:25:21.509Z,65.92
2022-09-17T05:26:21.868Z,66.02
2022-09-17T05:27:22.166Z,66.03
2022-09-17T05:28:22.463Z,66.13
2022-09-17T05:29:22.705Z,65.72
2022-09-17T05:30:22.950Z,65.72
2022-09-17T05:31:23.347Z,65.64
2022-09-17T05:32:23.600Z,66.02
2022-09-17T05:33:23.904Z,66.03
2022-09-17T05:34:24.222Z,65.92
2022-09-17T05:35:24.527Z,65.87
2022-09-17T05:36:24.878Z,65.73
2022-09-17T05:37:25.061Z,65.64
2022-09-17T05:38:25.440Z,63.28
2022-09-17T05:39:25.761Z,62.96
2022-09-17T05:40:26.052Z,62.55
2022-09-17T05:41:26.286Z,65.25
2022-09-17T05:42:26.601Z,65.16
2022-09-17T05:43:26.925Z,65.06
2022-09-17T05:44:27.233Z,64.87
2022-09-17T05:45:27.473Z,64.87
2022-09-17T05:46:27.781Z,64.17
2022-09-17T05:47:27.975Z,64.06
2022-09-17T05:48:28.223Z,64.06
2022-09-17T05:49:28.548Z,64.06
2022-09-17T05:50:28.786Z,64.20
2022-09-17T05:51:29.045Z,64.31
2022-09-17T05:52:29.409Z,64.11
2022-09-17T05:53:29.733Z,64.51
2022-09-17T05:54:30.058Z,64.11
2022-09-17T05:55:30.389Z,64.40
2022-09-17T05:56:30.634Z,62.72
2022-09-17T05:57:30.970Z,62.52
2022-09-17T05:58:31.297Z,62.51
2022-09-17T05:59:31.548Z,62.52
2022-09-17T06:00:31.856Z,63.48
2022-09-17T06:01:32.189Z,63.34
2022-09-17T06:02:32.397Z,62.74
2022-09-17T06:05:53.534Z,59.39
2022-09-17T06:06:53.828Z,59.38
2022-09-17T06:07:54.757Z,59.77
2022-09-17T06:08:54.527Z,59.86
2022-09-17T06:09:54.620Z,59.38
2022-09-17T06:10:58.987Z,58.40
2022-09-17T06:11:56.252Z,50.14
2022-09-17T06:12:55.547Z,50.01
2022-09-17T06:13:55.815Z,53.55
2022-09-17T06:14:56.085Z,52.59
2022-09-17T06:15:56.475Z,52.34
2022-09-17T06:16:56.697Z,50.12
2022-09-17T06:17:56.899Z,50.23
2022-09-17T06:18:57.295Z,50.01
2022-09-17T06:19:57.435Z,51.07
2022-09-17T06:20:57.801Z,50.41
2022-09-17T06:21:58.083Z,50.78
2022-09-17T06:22:58.390Z,50.05
2022-09-17T06:23:58.638Z,51.56
2022-09-17T06:24:58.881Z,53.20
2022-09-17T06:25:59.170Z,53.34
2022-09-17T06:26:59.698Z,50.00
2022-09-17T06:27:59.862Z,51.88
2022-09-17T06:29:00.079Z,50.20
2022-09-17T06:30:00.300Z,50.41
2022-09-17T06:31:00.580Z,50.81
2022-09-17T06:32:00.910Z,52.41
2022-09-17T06:33:01.121Z,50.13
2022-09-17T06:34:01.849Z,53.92
2022-09-17T06:35:01.646Z,53.91
2022-09-17T06:36:01.961Z,52.54
2022-09-17T06:37:02.268Z,50.60
2022-09-17T06:38:02.529Z,11.33
2022-09-17T06:39:02.719Z,11.18
2022-09-17T06:40:02.986Z,50.20
2022-09-17T06:41:03.256Z,50.01
2022-09-17T06:42:03.607Z,51.87
2022-09-17T06:43:03.918Z,51.56
2022-09-17T06:44:04.171Z,50.07
2022-09-17T06:45:09.308Z,11.04
2022-09-17T06:46:05.927Z,6.45
2022-09-17T06:47:05.148Z,0.39
2022-09-17T06:48:05.353Z,0.51
2022-09-17T06:49:05.639Z,0.05
2022-09-17T06:50:05.832Z,3.12
2022-09-17T06:51:06.139Z,4.16
2022-09-17T06:52:06.493Z,6.27
2022-09-17T06:53:06.786Z,9.55
2022-09-17T06:54:07.119Z,50.16
2022-09-17T06:55:07.466Z,50.39
2022-09-17T06:56:07.701Z,50.49
2022-09-17T06:57:08.057Z,50.00
2022-09-17T06:58:08.358Z,50.10
2022-09-17T06:59:08.696Z,50.22
2022-09-17T07:00:09.042Z,50.44
2022-09-17T07:01:09.382Z,50.79
2022-09-17T07:02:09.736Z,50.79
2022-09-17T07:03:09.960Z,53.13
2022-09-17T07:04:10.344Z,53.17
2022-09-17T07:05:10.521Z,53.32
2022-09-17T07:06:10.882Z,55.09
2022-09-17T07:07:11.256Z,50.03
2022-09-17T07:08:11.429Z,50.21
2022-09-17T07:09:11.663Z,50.05
2022-09-17T07:10:11.900Z,50.48
2022-09-17T07:11:12.253Z,50.11
2022-09-17T07:12:12.603Z,50.24
2022-09-17T07:13:12.824Z,50.95
2022-09-17T07:14:13.122Z,50.59
2022-09-17T07:15:13.359Z,51.57
2022-09-17T07:16:13.626Z,51.56
2022-09-17T07:17:13.883Z,52.11
2022-09-17T07:18:14.195Z,50.57
2022-09-17T07:19:14.995Z,52.34
2022-09-17T07:20:14.769Z,52.34
2022-09-17T07:21:15.092Z,52.34
2022-09-17T07:22:15.431Z,50.10
2022-09-17T07:23:15.740Z,50.20
2022-09-17T07:24:16.040Z,50.31
2022-09-17T07:25:16.395Z,52.43
2022-09-17T07:26:16.710Z,50.00
2022-09-17T07:27:16.961Z,52.83
2022-09-17T07:28:17.282Z,52.95
2022-09-17T07:29:18.014Z,53.18
2022-09-17T07:30:17.851Z,53.28
2022-09-17T07:31:18.140Z,53.12
2022-09-17T07:32:18.890Z,53.24
2022-09-17T07:33:18.828Z,53.61
2022-09-17T07:34:19.026Z,53.52
2022-09-17T07:35:19.394Z,53.52
2022-09-17T07:36:19.667Z,53.62
2022-09-17T07:37:19.957Z,56.25
2022-09-17T07:38:20.194Z,57.03
2022-09-17T07:39:20.404Z,57.03
2022-09-17T07:40:20.699Z,57.03
2022-09-17T07:41:20.991Z,57.09
2022-09-17T07:42:21.650Z,57.04
2022-09-17T07:43:21.520Z,56.99
2022-09-17T07:44:21.864Z,56.41
2022-09-17T07:45:22.881Z,57.10
2022-09-17T07:46:22.637Z,57.08
2022-09-17T07:47:22.872Z,56.27
2022-09-17T07:48:23.083Z,56.25
2022-09-17T07:49:23.508Z,56.29
2022-09-17T07:50:23.753Z,57.11
2022-09-17T07:51:23.942Z,59.39
2022-09-17T07:52:24.292Z,57.10
2022-09-17T07:53:24.496Z,56.48
2022-09-17T07:54:24.768Z,56.69
2022-09-17T07:55:25.088Z,56.65
2022-09-17T07:56:25.591Z,56.26
2022-09-17T07:57:25.699Z,57.03
2022-09-17T07:58:25.932Z,56.31
2022-09-17T07:59:26.150Z,56.26
2022-09-17T08:00:26.504Z,51.71
2022-09-17T08:01:27.153Z,50.83
2022-09-17T08:02:27.061Z,50.82
2022-09-17T08:03:27.225Z,50.01
2022-09-17T08:04:27.445Z,50.41
2022-09-17T08:05:27.665Z,50.01
2022-09-17T08:06:28.084Z,50.10
2022-09-17T08:07:29.387Z,50.42
2022-09-17T08:08:28.518Z,50.42
2022-09-17T08:09:28.772Z,50.21
2022-09-17T08:10:29.170Z,50.40
2022-09-17T08:11:54.312Z,50.05
2022-09-17T08:12:30.746Z,54.74
2022-09-17T08:13:30.034Z,53.12
2022-09-17T08:14:30.293Z,52.75
2022-09-17T08:15:30.655Z,50.02
2022-09-17T08:16:31.028Z,50.68
2022-09-17T08:17:31.118Z,50.45
2022-09-17T08:18:31.343Z,6.25
2022-09-17T08:19:31.717Z,3.71
2022-09-17T08:20:31.960Z,0.01
2022-09-17T08:21:32.159Z,0.01
2022-09-17T08:22:32.516Z,1.57
2022-09-17T08:23:32.865Z,4.79
2022-09-17T08:24:33.143Z,5.86
2022-09-17T08:25:33.345Z,7.42
2022-09-17T08:26:33.683Z,8.85
2022-09-17T08:27:34.086Z,7.92
2022-09-17T08:28:34.325Z,53.23
